createdAt,value
2023-04-15T00:00:37.475Z,7.20
2023-04-15T00:02:20.518Z,7.20
2023-04-15T00:03:56.674Z,7.10
2023-04-15T00:05:30.326Z,7.20
2023-04-15T00:07:04.668Z,7.20
2023-04-15T00:08:37.766Z,7.30
2023-04-15T00:10:10.753Z,7.30
2023-04-15T00:11:43.818Z,7.30
2023-04-15T00:13:16.954Z,7.30
2023-04-15T00:14:50.110Z,7.20
2023-04-15T00:16:22.248Z,7.20
2023-04-15T00:17:55.321Z,7.20
2023-04-15T00:19:27.278Z,7.20
2023-04-15T00:21:00.738Z,7.20
2023-04-15T00:22:37.837Z,7.30
2023-04-15T00:24:10.833Z,7.30
2023-04-15T00:25:43.904Z,7.30
2023-04-15T00:27:16.774Z,7.30
2023-04-15T00:28:48.825Z,7.30
2023-04-15T00:30:21.874Z,7.30
2023-04-15T00:31:54.827Z,7.30
2023-04-15T00:33:27.783Z,7.30
2023-04-15T00:35:00.894Z,7.30
2023-04-15T00:36:35.130Z,7.30
2023-04-15T00:38:09.637Z,7.30
2023-04-15T00:39:42.587Z,7.30
2023-04-15T00:41:15.920Z,7.30
2023-04-15T00:42:48.810Z,7.30
2023-04-15T00:44:21.741Z,7.20
2023-04-15T00:45:56.345Z,7.20
2023-04-15T00:47:31.682Z,7.30
2023-04-15T00:49:05.365Z,7.20
2023-04-15T00:50:38.313Z,7.30
2023-04-15T00:52:11.219Z,7.20
2023-04-15T00:53:44.628Z,7.30
2023-04-15T00:55:17.501Z,7.20
2023-04-15T00:56:50.457Z,7.20
2023-04-15T00:58:23.007Z,7.20
2023-04-15T00:59:57.214Z,7.20
2023-04-15T01:01:30.569Z,7.20
2023-04-15T01:03:03.452Z,7.20
2023-04-15T01:04:37.742Z,7.20
2023-04-15T01:06:11.505Z,7.20
2023-04-15T01:07:44.571Z,7.20
2023-04-15T01:09:19.581Z,7.20
2023-04-15T01:10:52.458Z,7.20
2023-04-15T01:12:27.351Z,7.20
2023-04-15T01:14:00.995Z,7.20
2023-04-15T01:15:33.275Z,7.20
2023-04-15T01:17:06.295Z,7.20
2023-04-15T01:18:38.572Z,7.20
2023-04-15T01:20:12.297Z,7.20
2023-04-15T01:21:45.087Z,7.20
2023-04-15T01:23:18.323Z,7.20
2023-04-15T01:24:59.946Z,7.20
2023-04-15T01:26:33.392Z,7.10
2023-04-15T01:28:06.366Z,7.10
2023-04-15T01:29:40.470Z,7.10
2023-04-15T01:31:14.802Z,7.10
2023-04-15T01:32:47.983Z,7.10
2023-04-15T01:34:21.078Z,7.10
2023-04-15T01:35:53.320Z,7.10
2023-04-15T01:37:27.516Z,7.10
2023-04-15T01:39:00.655Z,7.20
2023-04-15T01:40:32.799Z,7.20
2023-04-15T01:42:07.610Z,7.20
2023-04-15T01:43:40.557Z,7.20
2023-04-15T01:45:14.184Z,7.20
2023-04-15T01:46:48.396Z,7.10
2023-04-15T01:48:21.479Z,7.10
2023-04-15T01:49:54.487Z,7.20
2023-04-15T01:51:27.496Z,7.20
2023-04-15T01:52:59.504Z,7.10
2023-04-15T01:54:32.510Z,7.20
2023-04-15T01:56:05.927Z,7.20
2023-04-15T01:57:39.133Z,7.20
2023-04-15T01:59:12.149Z,7.20
2023-04-15T02:00:44.200Z,7.20
2023-04-15T02:02:17.442Z,7.20
2023-04-15T02:03:49.642Z,7.10
2023-04-15T02:05:22.666Z,7.10
2023-04-15T02:06:55.822Z,7.10
2023-04-15T02:08:28.804Z,7.10
2023-04-15T02:10:01.897Z,7.10
2023-04-15T02:11:35.142Z,7.10
2023-04-15T02:13:09.491Z,7.10
2023-04-15T02:14:42.464Z,7.10
2023-04-15T02:16:18.305Z,7.10
2023-04-15T02:17:52.752Z,7.10
2023-04-15T02:19:26.363Z,7.00
2023-04-15T02:20:59.429Z,7.00
2023-04-15T02:22:31.414Z,7.00
2023-04-15T02:24:04.521Z,7.00
2023-04-15T02:25:37.263Z,7.00
2023-04-15T02:27:10.318Z,7.00
2023-04-15T02:28:44.609Z,7.00
2023-04-15T02:30:18.063Z,7.00
2023-04-15T02:31:51.120Z,7.00
2023-04-15T02:33:24.847Z,7.00
2023-04-15T02:34:57.776Z,7.00
2023-04-15T02:36:31.616Z,7.00
2023-04-15T02:38:04.585Z,7.00
2023-04-15T02:39:37.593Z,7.00
2023-04-15T02:41:11.111Z,7.00
2023-04-15T02:42:44.423Z,7.00
2023-04-15T02:44:20.279Z,7.10
2023-04-15T02:45:53.280Z,7.10
2023-04-15T02:47:26.310Z,7.10
2023-04-15T02:49:00.193Z,7.10
2023-04-15T02:50:32.608Z,7.00
2023-04-15T02:52:06.462Z,7.10
2023-04-15T02:53:38.424Z,7.10
2023-04-15T02:55:11.546Z,7.10
2023-04-15T02:56:44.560Z,7.10
2023-04-15T02:58:17.570Z,7.10
2023-04-15T02:59:50.882Z,7.10
2023-04-15T03:01:23.778Z,7.10
2023-04-15T03:03:00.553Z,7.10
2023-04-15T03:04:33.682Z,7.10
2023-04-15T03:06:06.916Z,7.20
2023-04-15T03:07:40.928Z,7.10
2023-04-15T03:09:13.974Z,7.10
2023-04-15T03:10:47.314Z,7.10
2023-04-15T03:12:19.191Z,7.10
2023-04-15T03:13:52.244Z,7.10
2023-04-15T03:15:27.080Z,7.10
2023-04-15T03:17:00.328Z,7.10
2023-04-15T03:18:33.369Z,7.20
2023-04-15T03:20:09.566Z,7.20
2023-04-15T03:21:42.690Z,7.10
2023-04-15T03:23:15.872Z,7.10
2023-04-15T03:24:47.901Z,7.10
2023-04-15T03:26:31.049Z,7.10
2023-04-15T03:28:04.931Z,7.10
2023-04-15T03:29:37.957Z,7.10
2023-04-15T03:31:12.424Z,7.10
2023-04-15T03:32:46.164Z,7.10
2023-04-15T03:34:19.140Z,7.10
2023-04-15T03:35:52.570Z,7.10
2023-04-15T03:37:25.543Z,7.10
2023-04-15T03:38:58.855Z,7.10
2023-04-15T03:40:31.166Z,7.10
2023-04-15T03:42:04.501Z,7.10
2023-04-15T03:43:37.316Z,7.00
2023-04-15T03:45:11.130Z,7.10
2023-04-15T03:46:45.763Z,7.10
2023-04-15T03:48:18.457Z,7.10
2023-04-15T03:49:51.657Z,7.10
2023-04-15T03:51:23.736Z,7.10
2023-04-15T03:52:56.696Z,7.10
2023-04-15T03:54:29.623Z,7.10
2023-04-15T03:56:02.704Z,7.10
2023-04-15T03:57:38.978Z,7.10
2023-04-15T03:59:12.020Z,7.10
2023-04-15T04:00:44.003Z,7.00
2023-04-15T04:02:18.442Z,7.10
2023-04-15T04:03:51.638Z,7.10
2023-04-15T04:05:23.756Z,7.10
2023-04-15T04:06:56.781Z,7.10
2023-04-15T04:08:29.824Z,7.00
2023-04-15T04:10:03.774Z,7.10
2023-04-15T04:11:37.560Z,7.00
2023-04-15T04:13:10.513Z,7.10
2023-04-15T04:14:43.774Z,7.00
2023-04-15T04:16:17.308Z,7.00
2023-04-15T04:17:51.748Z,7.10
2023-04-15T04:19:24.741Z,7.10
2023-04-15T04:20:57.861Z,7.10
2023-04-15T04:22:31.034Z,7.10
2023-04-15T04:24:04.106Z,7.00
2023-04-15T04:25:37.553Z,7.10
2023-04-15T04:27:10.772Z,7.10
2023-04-15T04:28:43.769Z,7.00
2023-04-15T04:30:16.216Z,7.00
2023-04-15T04:31:49.572Z,7.00
2023-04-15T04:33:23.743Z,7.10
2023-04-15T04:34:56.767Z,7.10
2023-04-15T04:36:28.832Z,7.10
2023-04-15T04:38:01.852Z,7.10
2023-04-15T04:39:34.818Z,7.10
2023-04-15T04:41:06.825Z,7.20
2023-04-15T04:42:40.256Z,7.20
2023-04-15T04:44:12.397Z,7.20
2023-04-15T04:45:45.382Z,7.20
2023-04-15T04:47:18.443Z,7.20
2023-04-15T04:48:52.755Z,7.20
2023-04-15T04:50:25.688Z,7.20
2023-04-15T04:51:59.177Z,7.20
2023-04-15T04:53:32.231Z,7.20
2023-04-15T04:55:05.686Z,7.20
2023-04-15T04:56:39.765Z,7.20
2023-04-15T04:58:12.728Z,7.20
2023-04-15T04:59:46.039Z,7.20
2023-04-15T05:01:18.997Z,7.20
2023-04-15T05:02:52.188Z,7.30
2023-04-15T05:04:26.752Z,7.30
2023-04-15T05:05:59.631Z,7.30
2023-04-15T05:07:32.740Z,7.30
2023-04-15T05:09:05.762Z,7.30
2023-04-15T05:10:38.681Z,7.40
2023-04-15T05:12:15.044Z,7.40
2023-04-15T05:13:48.049Z,7.40
2023-04-15T05:15:20.447Z,7.30
2023-04-15T05:16:53.479Z,7.40
2023-04-15T05:18:26.445Z,7.50
2023-04-15T05:20:00.716Z,7.50
2023-04-15T05:21:33.671Z,7.60
2023-04-15T05:23:06.973Z,7.60
2023-04-15T05:24:39.833Z,7.60
2023-04-15T05:26:12.867Z,7.60
2023-04-15T05:27:45.905Z,7.70
2023-04-15T05:29:18.806Z,7.70
2023-04-15T05:30:51.914Z,7.80
2023-04-15T05:32:24.974Z,7.80
2023-04-15T05:33:57.909Z,7.80
2023-04-15T05:35:32.168Z,7.80
2023-04-15T05:37:04.252Z,7.90
2023-04-15T05:38:37.354Z,7.90
2023-04-15T05:40:11.048Z,8.00
2023-04-15T05:41:44.019Z,7.90
2023-04-15T05:43:16.982Z,8.00
2023-04-15T05:44:49.969Z,8.00
2023-04-15T05:46:23.601Z,8.00
2023-04-15T05:47:56.717Z,8.10
2023-04-15T05:49:29.717Z,8.10
2023-04-15T05:51:04.044Z,8.10
2023-04-15T05:52:37.016Z,8.20
2023-04-15T05:54:12.676Z,8.20
2023-04-15T05:55:45.654Z,8.10
2023-04-15T05:57:21.819Z,8.10
2023-04-15T05:58:55.675Z,8.10
2023-04-15T06:00:28.765Z,8.10
2023-04-15T06:02:01.894Z,8.20
2023-04-15T06:03:35.477Z,8.20
2023-04-15T06:05:10.156Z,8.20
2023-04-15T06:06:44.760Z,8.20
2023-04-15T06:08:17.841Z,8.20
2023-04-15T06:09:51.164Z,8.20
2023-04-15T06:11:24.015Z,8.20
2023-04-15T06:12:57.049Z,8.20
2023-04-15T06:14:30.298Z,8.10
2023-04-15T06:16:04.082Z,8.10
2023-04-15T06:17:37.318Z,8.10
2023-04-15T06:19:10.850Z,8.00
2023-04-15T06:20:43.788Z,8.00
2023-04-15T06:22:18.540Z,8.00
2023-04-15T06:23:51.730Z,8.00
2023-04-15T06:25:24.757Z,8.00
2023-04-15T06:26:57.783Z,8.10
2023-04-15T06:28:30.918Z,8.10
2023-04-15T06:30:04.339Z,8.10
2023-04-15T06:31:37.410Z,8.20
2023-04-15T06:33:10.813Z,8.30
2023-04-15T06:34:43.596Z,8.30
2023-04-15T06:36:16.537Z,8.30
2023-04-15T06:37:51.686Z,8.40
2023-04-15T06:39:24.678Z,8.50
2023-04-15T06:40:57.808Z,8.60
2023-04-15T06:42:31.011Z,8.80
2023-04-15T06:44:04.107Z,8.80
2023-04-15T06:45:37.108Z,8.80
2023-04-15T06:47:10.184Z,8.80
2023-04-15T06:48:43.366Z,8.80
2023-04-15T06:50:16.540Z,8.90
2023-04-15T06:51:49.507Z,8.90
2023-04-15T06:53:23.955Z,8.90
2023-04-15T06:54:57.215Z,9.00
2023-04-15T06:56:30.708Z,9.00
2023-04-15T06:58:04.148Z,9.00
2023-04-15T06:59:36.886Z,9.00
2023-04-15T07:01:10.012Z,9.20
2023-04-15T07:02:43.086Z,9.30
2023-04-15T07:04:16.273Z,9.40
2023-04-15T07:05:49.307Z,9.50
2023-04-15T07:07:22.223Z,9.60
2023-04-15T07:08:57.439Z,9.60
2023-04-15T07:10:30.666Z,9.50
2023-04-15T07:12:03.867Z,9.50
2023-04-15T07:15:13.509Z,9.60
2023-04-15T07:16:47.254Z,9.70
2023-04-15T07:18:20.582Z,9.90
2023-04-15T07:19:53.524Z,10.00
2023-04-15T07:21:27.654Z,10.00
2023-04-15T07:23:00.615Z,10.00
2023-04-15T07:24:35.095Z,10.10
2023-04-15T07:26:09.571Z,10.20
2023-04-15T07:27:42.729Z,10.30
2023-04-15T07:29:15.828Z,10.50
2023-04-15T07:30:49.615Z,10.60
2023-04-15T07:32:22.660Z,10.70
2023-04-15T07:33:55.588Z,10.70
2023-04-15T07:35:29.353Z,10.80
2023-04-15T07:37:02.660Z,10.90
2023-04-15T07:38:35.688Z,10.90
2023-04-15T07:40:11.708Z,10.80
2023-04-15T07:41:44.845Z,10.70
2023-04-15T07:43:18.035Z,10.70
2023-04-15T07:44:51.031Z,10.80
2023-04-15T07:46:24.661Z,10.80
2023-04-15T07:47:57.679Z,10.60
2023-04-15T07:49:30.936Z,10.40
2023-04-15T07:51:03.899Z,10.40
2023-04-15T07:52:39.303Z,10.20
2023-04-15T07:54:12.385Z,10.00
2023-04-15T07:55:46.705Z,10.10
2023-04-15T07:57:19.865Z,10.00
2023-04-15T07:58:52.814Z,9.90
2023-04-15T08:00:28.886Z,10.00
2023-04-15T08:02:02.622Z,10.00
2023-04-15T08:03:36.417Z,10.20
2023-04-15T08:05:10.585Z,10.30
2023-04-15T08:06:44.261Z,10.30
2023-04-15T08:08:17.278Z,10.40
2023-04-15T08:09:50.377Z,10.50
2023-04-15T08:11:24.957Z,10.50
2023-04-15T08:12:58.404Z,10.30
2023-04-15T08:14:31.199Z,10.10
2023-04-15T08:16:20.294Z,9.90
2023-04-15T08:17:53.285Z,9.70
2023-04-15T08:19:26.296Z,9.60
2023-04-15T08:20:58.300Z,9.50
2023-04-15T08:22:31.235Z,9.40
2023-04-15T08:24:04.391Z,9.30
2023-04-15T08:25:37.295Z,9.20
2023-04-15T08:27:11.554Z,9.20
2023-04-15T08:28:46.369Z,9.20
2023-04-15T08:30:19.534Z,9.10
2023-04-15T08:31:53.977Z,9.10
2023-04-15T08:33:27.501Z,9.00
2023-04-15T08:35:00.673Z,9.00
2023-04-15T08:36:33.734Z,8.90
2023-04-15T08:38:07.132Z,8.90
2023-04-15T08:39:40.174Z,8.70
2023-04-15T08:41:21.738Z,8.80
2023-04-15T08:42:58.924Z,8.70
2023-04-15T08:44:34.736Z,8.70
2023-04-15T08:46:08.336Z,8.80
2023-04-15T08:47:42.330Z,8.80
2023-04-15T08:49:16.919Z,8.90
2023-04-15T08:50:49.029Z,9.00
2023-04-15T08:52:22.574Z,8.90
2023-04-15T08:53:55.782Z,9.00
2023-04-15T08:55:31.779Z,8.90
2023-04-15T08:57:05.070Z,8.70
2023-04-15T08:58:39.740Z,8.70
2023-04-15T09:00:14.030Z,8.70
2023-04-15T09:01:48.451Z,8.60
2023-04-15T09:03:23.563Z,8.60
2023-04-15T09:04:56.757Z,8.60
2023-04-15T09:06:29.655Z,8.70
2023-04-15T09:08:02.990Z,8.80
2023-04-15T09:09:40.541Z,9.00
2023-04-15T09:11:13.472Z,9.10
2023-04-15T09:12:46.615Z,9.10
2023-04-15T09:14:20.911Z,9.10
2023-04-15T09:15:55.260Z,9.20
2023-04-15T09:17:28.195Z,9.10
2023-04-15T09:19:01.613Z,9.30
2023-04-15T09:20:41.990Z,9.30
2023-04-15T09:22:16.728Z,9.40
2023-04-15T09:23:57.887Z,9.50
2023-04-15T09:25:33.501Z,9.60
2023-04-15T09:27:08.258Z,9.90
2023-04-15T09:28:44.107Z,10.10
2023-04-15T09:30:18.699Z,10.00
2023-04-15T09:31:52.732Z,9.90
2023-04-15T09:33:27.164Z,9.80
2023-04-15T09:35:11.519Z,9.60
2023-04-15T09:36:55.063Z,9.60
2023-04-15T09:38:28.761Z,9.60
2023-04-15T09:40:01.797Z,9.60
2023-04-15T09:41:34.873Z,9.50
2023-04-15T09:43:08.724Z,9.40
2023-04-15T09:44:41.671Z,9.40
2023-04-15T09:46:16.291Z,9.40
2023-04-15T09:47:51.172Z,9.30
2023-04-15T09:49:24.204Z,9.20
2023-04-15T09:51:00.366Z,9.10
2023-04-15T09:52:32.757Z,9.10
2023-04-15T09:54:05.970Z,9.00
2023-04-15T09:55:39.097Z,9.20
2023-04-15T09:57:12.231Z,9.10
2023-04-15T09:58:46.692Z,9.10
2023-04-15T10:00:19.731Z,9.10
2023-04-15T10:01:54.206Z,9.10
2023-04-15T10:03:28.799Z,9.00
2023-04-15T10:05:03.260Z,9.20
2023-04-15T10:06:37.033Z,9.30
2023-04-15T10:08:11.081Z,9.30
2023-04-15T10:09:47.033Z,9.30
2023-04-15T10:11:21.175Z,9.40
2023-04-15T10:12:55.654Z,9.30
2023-04-15T10:14:32.868Z,9.20
2023-04-15T10:16:08.232Z,9.20
2023-04-15T10:17:45.686Z,9.00
2023-04-15T10:19:23.917Z,8.90
2023-04-15T10:20:57.148Z,8.80
2023-04-15T10:22:31.500Z,8.70
2023-04-15T10:24:06.104Z,8.70
2023-04-15T10:25:39.658Z,8.70
2023-04-15T10:27:12.948Z,8.70
2023-04-15T10:28:47.228Z,8.70
2023-04-15T10:30:20.645Z,8.60
2023-04-15T10:31:54.698Z,8.50
2023-04-15T10:33:30.552Z,8.40
2023-04-15T10:35:04.239Z,8.40
2023-04-15T10:36:37.667Z,8.20
2023-04-15T10:38:25.275Z,8.10
2023-04-15T10:39:58.949Z,8.10
2023-04-15T10:41:34.514Z,8.00
2023-04-15T10:43:07.575Z,7.90
2023-04-15T10:44:42.781Z,7.90
2023-04-15T10:46:17.233Z,7.90
2023-04-15T10:47:56.036Z,7.90
2023-04-15T10:49:30.495Z,7.90
2023-04-15T10:51:03.710Z,7.80
2023-04-15T10:52:40.819Z,7.90
2023-04-15T10:54:16.325Z,7.90
2023-04-15T10:55:49.881Z,8.00
2023-04-15T10:57:24.783Z,8.10
2023-04-15T10:58:59.850Z,8.30
2023-04-15T11:00:35.416Z,8.50
2023-04-15T11:02:09.416Z,8.60
2023-04-15T11:03:44.467Z,8.80
2023-04-15T11:05:20.083Z,9.20
2023-04-15T11:07:07.451Z,9.50
2023-04-15T11:09:02.702Z,9.70
2023-04-15T11:10:54.236Z,9.90
2023-04-15T11:12:35.578Z,10.10
2023-04-15T11:14:16.521Z,10.10
2023-04-15T11:15:51.913Z,10.30
2023-04-15T11:17:29.989Z,10.20
2023-04-15T11:19:03.667Z,10.10
2023-04-15T11:20:38.384Z,10.30
2023-04-15T11:22:11.692Z,10.50
2023-04-15T11:23:46.911Z,10.50
2023-04-15T11:25:26.637Z,10.40
2023-04-15T11:26:59.815Z,10.40
2023-04-15T11:28:33.764Z,10.40
2023-04-15T11:30:20.063Z,10.20
2023-04-15T11:31:52.991Z,10.00
2023-04-15T11:33:26.993Z,9.90
2023-04-15T11:34:59.870Z,9.80
2023-04-15T11:36:34.152Z,9.60
2023-04-15T11:38:10.037Z,9.40
2023-04-15T11:39:44.286Z,9.10
2023-04-15T11:41:21.961Z,8.90
2023-04-15T11:43:05.914Z,8.80
2023-04-15T11:44:38.837Z,8.80
2023-04-15T11:46:11.771Z,8.70
2023-04-15T11:47:44.771Z,8.70
2023-04-15T11:49:27.963Z,8.70
2023-04-15T11:51:03.101Z,8.70
2023-04-15T11:52:37.344Z,8.70
2023-04-15T11:54:10.877Z,8.70
2023-04-15T11:55:46.247Z,8.80
2023-04-15T11:57:19.208Z,8.90
2023-04-15T11:58:54.291Z,9.20
2023-04-15T12:00:27.266Z,9.40
2023-04-15T12:02:00.319Z,9.60
2023-04-15T12:03:38.895Z,9.70
2023-04-15T12:05:12.313Z,9.70
2023-04-15T12:06:46.077Z,9.60
2023-04-15T12:08:19.395Z,9.60
2023-04-15T12:09:56.671Z,9.60
2023-04-15T12:11:53.913Z,9.60
2023-04-15T12:13:28.088Z,9.60
2023-04-15T12:15:01.855Z,9.60
2023-04-15T12:16:37.269Z,9.50
2023-04-15T12:18:22.239Z,9.40
2023-04-15T12:19:57.827Z,9.40
2023-04-15T12:21:35.688Z,9.30
2023-04-15T12:23:08.705Z,9.20
2023-04-15T12:24:46.986Z,9.20
2023-04-15T12:26:26.719Z,9.20
2023-04-15T12:27:59.598Z,9.10
2023-04-15T12:29:34.131Z,9.10
2023-04-15T12:31:10.023Z,9.10
2023-04-15T12:32:44.067Z,9.10
2023-04-15T12:34:17.189Z,9.10
2023-04-15T12:35:50.229Z,9.20
2023-04-15T12:37:23.493Z,9.20
2023-04-15T12:38:56.396Z,9.30
2023-04-15T12:40:30.705Z,9.30
2023-04-15T12:42:05.268Z,9.30
2023-04-15T12:43:37.357Z,9.40
2023-04-15T12:45:10.596Z,9.20
2023-04-15T12:46:43.578Z,9.20
2023-04-15T12:48:16.613Z,9.10
2023-04-15T12:49:49.670Z,8.90
2023-04-15T12:51:23.027Z,8.80
2023-04-15T12:52:55.962Z,8.80
2023-04-15T12:54:29.163Z,8.80
2023-04-15T12:56:03.506Z,8.80
2023-04-15T12:57:36.431Z,8.80
2023-04-15T12:59:09.526Z,8.80
2023-04-15T13:00:42.860Z,8.80
2023-04-15T13:02:15.804Z,8.80
2023-04-15T13:03:50.466Z,8.90
2023-04-15T13:05:23.457Z,8.90
2023-04-15T13:06:56.769Z,9.00
2023-04-15T13:08:29.477Z,9.20
2023-04-15T13:10:02.572Z,9.20
2023-04-15T13:11:37.110Z,9.30
2023-04-15T13:13:10.122Z,9.30
2023-04-15T13:14:43.165Z,9.40
2023-04-15T13:16:16.429Z,9.50
2023-04-15T13:17:49.588Z,9.50
2023-04-15T13:19:22.583Z,9.50
2023-04-15T13:20:56.542Z,9.50
2023-04-15T13:22:29.444Z,9.50
2023-04-15T13:24:02.955Z,9.50
2023-04-15T13:25:36.367Z,9.50
2023-04-15T13:27:11.090Z,9.50
2023-04-15T13:28:44.144Z,9.40
2023-04-15T13:30:17.246Z,9.40
2023-04-15T13:31:50.531Z,9.50
2023-04-15T13:33:23.361Z,9.40
2023-04-15T13:34:56.381Z,9.40
2023-04-15T13:36:29.478Z,9.40
2023-04-15T13:38:02.605Z,9.40
2023-04-15T13:39:35.840Z,9.30
2023-04-15T13:41:08.921Z,9.30
2023-04-15T13:42:43.516Z,9.30
2023-04-15T13:44:16.657Z,9.30
2023-04-15T13:45:50.123Z,9.30
2023-04-15T13:47:23.413Z,9.30
2023-04-15T13:48:56.177Z,9.20
2023-04-15T13:50:29.455Z,9.20
2023-04-15T13:52:02.436Z,9.20
2023-04-15T13:53:38.844Z,9.20
2023-04-15T13:55:18.720Z,9.30
2023-04-15T13:56:57.200Z,9.40
2023-04-15T13:58:31.534Z,9.40
2023-04-15T14:00:05.960Z,9.40
2023-04-15T14:01:39.367Z,9.30
2023-04-15T14:03:12.332Z,9.40
2023-04-15T14:04:45.348Z,9.50
2023-04-15T14:06:18.389Z,9.50
2023-04-15T14:07:51.330Z,9.60
2023-04-15T14:09:26.289Z,9.70
2023-04-15T14:10:59.611Z,9.70
2023-04-15T14:12:32.518Z,9.80
2023-04-15T14:14:07.071Z,9.80
2023-04-15T14:15:40.077Z,9.80
2023-04-15T14:17:13.164Z,9.90
2023-04-15T14:18:46.567Z,9.90
2023-04-15T14:20:19.599Z,10.00
2023-04-15T14:21:52.667Z,9.90
2023-04-15T14:23:25.712Z,9.80
2023-04-15T14:24:58.658Z,9.80
2023-04-15T14:26:31.656Z,9.60
2023-04-15T14:28:05.015Z,9.50
2023-04-15T14:29:39.306Z,9.30
2023-04-15T14:31:12.485Z,9.30
2023-04-15T14:32:45.691Z,9.30
2023-04-15T14:34:18.948Z,9.20
2023-04-15T14:35:52.821Z,9.20
2023-04-15T14:37:26.486Z,9.20
2023-04-15T14:38:59.566Z,9.20
2023-04-15T14:40:32.708Z,9.20
2023-04-15T14:42:05.760Z,9.10
2023-04-15T14:43:39.171Z,9.20
2023-04-15T14:45:13.436Z,9.10
2023-04-15T14:46:46.430Z,9.10
2023-04-15T14:48:18.416Z,9.20
2023-04-15T14:49:51.772Z,9.20
2023-04-15T14:51:24.552Z,9.30
2023-04-15T14:52:57.733Z,9.30
2023-04-15T14:54:30.977Z,9.20
2023-04-15T14:56:04.112Z,9.20
2023-04-15T14:57:37.111Z,9.10
2023-04-15T14:59:10.115Z,9.10
2023-04-15T15:00:45.351Z,9.10
2023-04-15T15:02:36.724Z,9.10
2023-04-15T15:04:12.328Z,9.10
2023-04-15T15:05:47.394Z,9.10
2023-04-15T15:07:20.790Z,9.20
2023-04-15T15:08:53.984Z,9.30
2023-04-15T15:10:34.621Z,9.30
2023-04-15T15:12:20.092Z,9.30
2023-04-15T15:13:52.982Z,9.30
2023-04-15T15:15:29.025Z,9.20
2023-04-15T15:17:03.777Z,9.20
2023-04-15T15:18:37.245Z,9.10
2023-04-15T15:20:10.910Z,9.10
2023-04-15T15:21:43.883Z,9.10
2023-04-15T15:23:16.857Z,9.10
2023-04-15T15:24:50.026Z,9.10
2023-04-15T15:26:23.094Z,9.10
2023-04-15T15:27:56.113Z,9.00
2023-04-15T15:29:29.119Z,9.00
2023-04-15T15:31:02.124Z,9.00
2023-04-15T15:32:37.007Z,9.00
2023-04-15T15:34:10.482Z,9.00
2023-04-15T15:35:43.540Z,9.00
2023-04-15T15:37:16.586Z,8.90
2023-04-15T15:38:49.677Z,8.90
2023-04-15T15:40:21.968Z,8.90
2023-04-15T15:41:55.013Z,8.80
2023-04-15T15:43:28.345Z,8.80
2023-04-15T15:45:00.712Z,8.80
2023-04-15T15:46:33.826Z,8.70
2023-04-15T15:48:08.535Z,8.70
2023-04-15T15:49:41.642Z,8.60
2023-04-15T15:51:14.699Z,8.60
2023-04-15T15:52:47.679Z,8.60
2023-04-15T15:54:20.768Z,8.60
2023-04-15T15:55:54.103Z,8.60
2023-04-15T15:57:27.012Z,8.70
2023-04-15T15:58:59.985Z,8.70
2023-04-15T16:00:33.071Z,8.70
2023-04-15T16:02:06.215Z,8.70
2023-04-15T16:03:40.880Z,8.70
2023-04-15T16:05:14.347Z,8.70
2023-04-15T16:06:47.397Z,8.70
2023-04-15T16:08:20.781Z,8.70
2023-04-15T16:09:53.895Z,8.60
2023-04-15T16:11:26.965Z,8.60
2023-04-15T16:12:59.991Z,8.50
2023-04-15T16:14:32.982Z,8.50
2023-04-15T16:16:06.234Z,8.40
2023-04-15T16:17:39.351Z,8.40
2023-04-15T16:19:13.690Z,8.40
2023-04-15T16:20:46.789Z,8.40
2023-04-15T16:22:19.789Z,8.40
2023-04-15T16:23:52.833Z,8.40
2023-04-15T16:25:26.233Z,8.40
2023-04-15T16:26:59.538Z,8.40
2023-04-15T16:28:32.611Z,8.50
2023-04-15T16:30:07.231Z,8.40
2023-04-15T16:31:41.502Z,8.30
2023-04-15T16:33:14.582Z,8.40
2023-04-15T16:34:49.007Z,8.40
2023-04-15T16:36:22.163Z,8.30
2023-04-15T16:37:55.318Z,8.20
2023-04-15T16:39:28.373Z,8.20
2023-04-15T16:41:02.682Z,8.20
2023-04-15T16:42:36.755Z,8.30
2023-04-15T16:44:10.847Z,8.30
2023-04-15T16:45:45.386Z,8.30
2023-04-15T16:47:18.390Z,8.30
2023-04-15T16:48:51.458Z,8.30
2023-04-15T16:50:25.955Z,8.40
2023-04-15T16:51:59.186Z,8.40
2023-04-15T16:53:32.158Z,8.40
2023-04-15T16:55:06.044Z,8.40
2023-04-15T16:56:39.204Z,8.40
2023-04-15T16:58:12.217Z,8.50
2023-04-15T16:59:45.313Z,8.40
2023-04-15T17:01:18.386Z,8.40
2023-04-15T17:02:51.550Z,8.30
2023-04-15T17:04:24.841Z,8.40
2023-04-15T17:05:59.361Z,8.30
2023-04-15T17:07:32.377Z,8.40
2023-04-15T17:09:06.437Z,8.30
2023-04-15T17:10:39.749Z,8.40
2023-04-15T17:12:12.825Z,8.30
2023-04-15T17:13:45.881Z,8.40
2023-04-15T17:15:19.154Z,8.30
2023-04-15T17:16:52.191Z,8.30
2023-04-15T17:18:25.171Z,8.30
2023-04-15T17:19:58.144Z,8.30
2023-04-15T17:21:32.718Z,8.30
2023-04-15T17:23:05.724Z,8.30
2023-04-15T17:24:38.714Z,8.30
2023-04-15T17:26:11.710Z,8.30
2023-04-15T17:27:45.041Z,8.20
2023-04-15T17:29:17.851Z,8.30
2023-04-15T17:30:51.045Z,8.30
2023-04-15T17:32:24.676Z,8.30
2023-04-15T17:34:02.564Z,8.30
2023-04-15T17:35:42.286Z,8.30
2023-04-15T17:37:16.984Z,8.30
2023-04-15T17:38:50.116Z,8.30
2023-04-15T17:40:23.116Z,8.30
2023-04-15T17:41:58.008Z,8.30
2023-04-15T17:43:31.004Z,8.40
2023-04-15T17:45:04.103Z,8.40
2023-04-15T17:46:37.206Z,8.50
2023-04-15T17:48:10.363Z,8.50
2023-04-15T17:49:43.698Z,8.50
2023-04-15T17:51:17.104Z,8.50
2023-04-15T17:52:51.594Z,8.40
2023-04-15T17:54:24.605Z,8.40
2023-04-15T17:55:59.130Z,8.40
2023-04-15T17:57:32.278Z,8.40
2023-04-15T17:59:06.378Z,8.50
2023-04-15T18:00:39.413Z,8.40
2023-04-15T18:02:12.670Z,8.30
2023-04-15T18:03:45.763Z,8.30
2023-04-15T18:05:19.844Z,8.30
2023-04-15T18:06:53.152Z,8.30
2023-04-15T18:08:27.545Z,8.30
2023-04-15T18:10:00.528Z,8.30
2023-04-15T18:11:34.127Z,8.30
2023-04-15T18:13:07.156Z,8.30
2023-04-15T18:14:40.096Z,8.30
2023-04-15T18:16:13.141Z,8.30
2023-04-15T18:17:46.309Z,8.30
2023-04-15T18:19:19.290Z,8.20
2023-04-15T18:20:52.347Z,8.30
2023-04-15T18:22:25.400Z,8.30
2023-04-15T18:23:59.767Z,8.30
2023-04-15T18:25:34.172Z,8.30
2023-04-15T18:27:07.228Z,8.30
2023-04-15T18:28:40.268Z,8.30
2023-04-15T18:30:14.092Z,8.30
2023-04-15T18:31:47.274Z,8.30
2023-04-15T18:33:21.144Z,8.40
2023-04-15T18:34:55.519Z,8.40
2023-04-15T18:36:28.513Z,8.30
2023-04-15T18:38:01.782Z,8.30
2023-04-15T18:39:36.019Z,8.40
2023-04-15T18:41:10.126Z,8.30
2023-04-15T18:42:43.279Z,8.40
2023-04-15T18:44:16.343Z,8.40
2023-04-15T18:45:49.501Z,8.30
2023-04-15T18:47:23.798Z,8.30
2023-04-15T18:48:57.714Z,8.30
2023-04-15T18:50:30.893Z,8.30
2023-04-15T18:52:04.164Z,8.40
2023-04-15T18:53:38.278Z,8.30
2023-04-15T18:55:12.639Z,8.30
2023-04-15T18:56:45.701Z,8.30
2023-04-15T18:58:18.795Z,8.30
2023-04-15T18:59:52.223Z,8.20
2023-04-15T19:01:25.453Z,8.20
2023-04-15T19:02:58.603Z,8.20
2023-04-15T19:04:31.885Z,8.20
2023-04-15T19:06:05.193Z,8.20
2023-04-15T19:07:38.554Z,8.30
2023-04-15T19:09:11.437Z,8.30
2023-04-15T19:10:45.911Z,8.30
2023-04-15T19:12:18.929Z,8.30
2023-04-15T19:13:52.305Z,8.30
2023-04-15T19:15:25.244Z,8.20
2023-04-15T19:16:58.373Z,8.30
2023-04-15T19:18:31.518Z,8.30
2023-04-15T19:20:04.543Z,8.30
2023-04-15T19:21:37.558Z,8.30
2023-04-15T19:23:12.000Z,8.30
2023-04-15T19:24:44.985Z,8.30
2023-04-15T19:26:19.252Z,8.30
2023-04-15T19:27:52.246Z,8.20
2023-04-15T19:29:26.019Z,8.20
2023-04-15T19:30:59.395Z,8.20
2023-04-15T19:32:32.246Z,8.30
2023-04-15T19:34:05.207Z,8.20
2023-04-15T19:35:38.323Z,8.20
2023-04-15T19:37:11.969Z,8.20
2023-04-15T19:38:45.015Z,8.20
2023-04-15T19:40:18.001Z,8.20
2023-04-15T19:41:55.163Z,8.10
2023-04-15T19:43:28.481Z,8.20
2023-04-15T19:45:01.470Z,8.10
2023-04-15T19:46:34.628Z,8.00
2023-04-15T19:48:07.706Z,8.00
2023-04-15T19:49:40.983Z,8.00
2023-04-15T19:51:13.994Z,8.00
2023-04-15T19:52:47.036Z,8.00
2023-04-15T19:54:19.988Z,8.00
2023-04-15T19:55:53.011Z,8.10
2023-04-15T19:57:27.397Z,8.00
2023-04-15T19:59:00.430Z,8.00
2023-04-15T20:00:33.393Z,7.90
2023-04-15T20:02:06.440Z,7.90
2023-04-15T20:03:39.717Z,8.00
2023-04-15T20:05:13.778Z,8.00
2023-04-15T20:06:46.805Z,8.00
2023-04-15T20:08:19.822Z,8.00
2023-04-15T20:09:52.795Z,8.00
2023-04-15T20:12:04.992Z,8.00
2023-04-15T20:13:23.318Z,8.00
2023-04-15T20:14:56.253Z,8.10
2023-04-15T20:16:29.262Z,8.00
2023-04-15T20:18:02.314Z,8.00
2023-04-15T20:19:35.369Z,8.00
2023-04-15T20:21:08.288Z,8.10
2023-04-15T20:22:41.403Z,8.00
2023-04-15T20:24:14.420Z,8.00
2023-04-15T20:25:47.586Z,8.00
2023-04-15T20:27:21.453Z,8.00
2023-04-15T20:28:58.138Z,8.00
2023-04-15T20:30:31.196Z,8.00
2023-04-15T20:32:04.413Z,8.00
2023-04-15T20:33:37.458Z,8.00
2023-04-15T20:35:10.591Z,8.00
2023-04-15T20:36:45.122Z,8.00
2023-04-15T20:38:18.149Z,8.10
2023-04-15T20:39:51.123Z,8.10
2023-04-15T20:41:24.296Z,8.10
2023-04-15T20:42:57.418Z,8.00
2023-04-15T20:44:31.947Z,8.00
2023-04-15T20:46:19.815Z,8.00
2023-04-15T20:47:54.737Z,8.00
2023-04-15T20:49:27.678Z,8.00